Lorain, Ohio
Current Conditions -  °F | °C
As of 10:53 PM on Monday 22 Dec 2014 (Local Time) from KLPR Reporting Station
Overcast Overcast  
Wind Chill: 32°   Ceiling: 10000
Heat Index: 39°   Visibility: 9mi
Dew Point: 32°   Wind: 10mph
Humidity: 76%   Direction: 150°SSE
Pressure: 29.86"   Gusts: NA
Location:  41.47°N, 82.18°W
Report Text: KLPR 230353Z AUTO 15009KT 9SM OVC100 04/00 A2986 RMK AO2 SLP119 T00390000 TSNO
Loading
Personal Weather Stations






























Interactive Weather Map New forecast layout! Learn more

10-Day Weather Forecast

Advertisements
Track Severe Weather on mobile